China Village, Maine
Current Conditions -  °F | °C
As of 9:35 AM on Sunday 25 Jan 2015 (Local Time) from KWVL Reporting Station
Scattered Clouds Scattered Clouds  
Wind Chill: 18°   Ceiling: Unl
Heat Index: 30°   Visibility: 10mi
Dew Point: 18°   Wind: 17mph
Humidity: 60%   Direction: 300°WNW
Pressure: 29.42"   Gusts: 25mph
Location:  44.4788°N, 69.5176°W
Report Text: KWVL 251435Z 30015G22KT 10SM SCT023 SCT031 SCT037 M01/M08 A2942 RMK AO1
Loading
Personal Weather Stations






























Interactive Weather Map New forecast layout! Learn more

10-Day Weather Forecast

Advertisements
Track Severe Weather on mobile